createdAt,value
2022-09-14T00:00:43.968Z,75.03
2022-09-14T00:01:45.455Z,74.54
2022-09-14T00:02:47.143Z,74.51
2022-09-14T00:03:52.744Z,74.69
2022-09-14T00:04:54.215Z,74.46
2022-09-14T00:05:55.633Z,74.75
2022-09-14T00:06:57.095Z,74.67
2022-09-14T00:07:58.632Z,74.85
2022-09-14T00:09:00.878Z,75.12
2022-09-14T00:10:02.356Z,74.78
2022-09-14T00:11:07.829Z,74.60
2022-09-14T00:12:09.559Z,74.17
2022-09-14T00:13:12.392Z,74.49
2022-09-14T00:14:14.266Z,74.41
2022-09-14T00:15:15.866Z,74.50
2022-09-14T00:16:20.376Z,74.12
2022-09-14T00:17:21.845Z,73.73
2022-09-14T00:18:23.253Z,74.04
2022-09-14T00:19:26.495Z,74.00
2022-09-14T00:20:27.952Z,73.84
2022-09-14T00:21:29.363Z,74.10
2022-09-14T00:22:30.815Z,74.71
2022-09-14T00:23:34.401Z,74.76
2022-09-14T00:24:35.977Z,74.50
2022-09-14T00:25:37.451Z,73.79
2022-09-14T00:26:40.187Z,74.28
2022-09-14T00:27:41.615Z,74.13
2022-09-14T00:28:45.264Z,74.29
2022-09-14T00:29:47.199Z,73.21
2022-09-14T00:30:48.637Z,73.33
2022-09-14T00:31:50.312Z,74.12
2022-09-14T00:32:51.938Z,73.16
2022-09-14T00:33:54.007Z,73.11
2022-09-14T00:34:55.489Z,73.09
2022-09-14T00:36:04.253Z,74.49
2022-09-14T00:37:05.751Z,75.83
2022-09-14T00:38:07.196Z,75.41
2022-09-14T00:39:09.479Z,75.04
2022-09-14T00:40:11.492Z,74.70
2022-09-14T00:41:18.388Z,74.69
2022-09-14T00:42:21.133Z,75.04
2022-09-14T00:43:22.559Z,74.93
2022-09-14T00:45:00.019Z,74.09
2022-09-14T00:46:02.149Z,74.15
2022-09-14T00:47:03.681Z,73.55
2022-09-14T00:48:05.230Z,73.45
2022-09-14T00:49:10.380Z,73.32
2022-09-14T00:50:12.182Z,73.48
2022-09-14T00:51:15.278Z,73.83
2022-09-14T00:52:20.113Z,73.98
2022-09-14T00:53:22.419Z,73.64
2022-09-14T00:54:24.443Z,74.75
2022-09-14T00:55:25.927Z,75.36
2022-09-14T00:56:27.438Z,75.71
2022-09-14T00:57:35.671Z,75.77
2022-09-14T00:58:37.717Z,75.88
2022-09-14T00:59:41.603Z,76.07
2022-09-14T01:00:43.101Z,76.10
2022-09-14T01:01:45.364Z,75.94
2022-09-14T01:02:46.951Z,75.89
2022-09-14T01:03:48.694Z,76.10
2022-09-14T01:04:51.667Z,75.78
2022-09-14T01:06:02.329Z,76.31
2022-09-14T01:07:09.727Z,76.06
2022-09-14T01:08:27.782Z,76.38
2022-09-14T01:09:35.262Z,76.45
2022-09-14T01:10:52.516Z,76.83
2022-09-14T01:12:09.522Z,77.09
2022-09-14T01:13:24.185Z,77.35
2022-09-14T01:14:32.115Z,77.22
2022-09-14T01:15:42.722Z,77.43
2022-09-14T01:16:51.778Z,77.20
2022-09-14T01:17:58.612Z,77.47
2022-09-14T01:19:03.912Z,77.29
2022-09-14T01:20:20.696Z,77.95
2022-09-14T01:21:26.463Z,77.68
2022-09-14T01:22:35.104Z,77.66
2022-09-14T01:23:46.984Z,78.25
2022-09-14T01:24:53.019Z,78.03
2022-09-14T01:26:28.217Z,78.11
2022-09-14T01:27:35.383Z,78.33
2022-09-14T01:28:43.588Z,78.31
2022-09-14T01:29:49.793Z,77.81
2022-09-14T01:30:53.970Z,77.74
2022-09-14T01:32:02.092Z,78.43
2022-09-14T01:33:09.695Z,78.25
2022-09-14T01:34:16.535Z,78.76
2022-09-14T01:35:25.843Z,79.58
2022-09-14T01:36:31.240Z,79.87
2022-09-14T01:37:36.637Z,80.45
2022-09-14T01:38:42.619Z,80.95
2022-09-14T01:39:48.807Z,80.94
2022-09-14T01:40:51.093Z,80.91
2022-09-14T01:41:55.460Z,81.59
2022-09-14T01:43:02.130Z,81.74
2022-09-14T01:44:09.325Z,81.58
2022-09-14T01:45:14.867Z,81.56
2022-09-14T01:46:19.336Z,82.35
2022-09-14T01:47:24.262Z,81.98
2022-09-14T01:48:35.279Z,82.14
2022-09-14T01:49:42.190Z,82.34
2022-09-14T01:50:46.202Z,83.08
2022-09-14T01:51:49.999Z,82.88
2022-09-14T01:52:57.869Z,82.62
2022-09-14T01:54:07.331Z,83.34
2022-09-14T01:55:15.108Z,83.21
2022-09-14T01:56:21.873Z,82.88
2022-09-14T01:57:28.639Z,83.84
2022-09-14T01:58:36.229Z,83.46
2022-09-14T01:59:40.933Z,82.54
2022-09-14T02:00:45.053Z,83.21
2022-09-14T02:01:51.849Z,82.87
2022-09-14T02:02:56.509Z,82.51
2022-09-14T02:04:04.168Z,83.39
2022-09-14T02:05:09.347Z,83.32
2022-09-14T02:06:19.329Z,82.86
2022-09-14T02:07:20.752Z,83.10
2022-09-14T02:08:22.699Z,82.82
2022-09-14T02:09:25.511Z,83.06
2022-09-14T02:10:27.301Z,83.03
2022-09-14T02:11:28.906Z,83.37
2022-09-14T02:12:30.626Z,83.82
2022-09-14T02:13:33.867Z,83.94
2022-09-14T02:14:35.712Z,83.36
2022-09-14T02:15:38.786Z,83.18
2022-09-14T02:16:40.695Z,83.90
2022-09-14T02:17:43.365Z,84.27
2022-09-14T02:18:44.887Z,83.98
2022-09-14T02:19:52.103Z,83.56
2022-09-14T02:20:55.857Z,84.32
2022-09-14T02:21:57.301Z,84.90
2022-09-14T02:22:59.313Z,85.42
2022-09-14T02:24:01.446Z,85.02
2022-09-14T02:25:03.775Z,85.04
2022-09-14T02:26:05.463Z,85.35
2022-09-14T02:27:07.700Z,85.02
2022-09-14T02:28:09.193Z,84.81
2022-09-14T02:29:12.242Z,84.75
2022-09-14T02:30:14.739Z,84.65
2022-09-14T02:31:23.913Z,85.00
2022-09-14T02:32:35.220Z,84.75
2022-09-14T02:33:41.464Z,84.80
2022-09-14T02:34:53.748Z,84.54
2022-09-14T02:36:00.058Z,84.18
2022-09-14T02:37:10.376Z,84.75
2022-09-14T02:38:21.378Z,84.22
2022-09-14T02:39:31.285Z,84.16
2022-09-14T02:40:35.925Z,84.03
2022-09-14T02:41:43.226Z,83.82
2022-09-14T02:42:55.123Z,83.51
2022-09-14T02:44:03.422Z,83.08
2022-09-14T02:45:16.997Z,83.52
2022-09-14T02:46:26.646Z,83.34
2022-09-14T02:47:33.317Z,83.64
2022-09-14T02:48:40.587Z,83.15
2022-09-14T02:49:48.771Z,83.39
2022-09-14T02:50:56.321Z,83.22
2022-09-14T02:52:07.463Z,83.38
2022-09-14T02:53:15.576Z,83.21
2022-09-14T02:54:24.339Z,83.58
2022-09-14T02:55:31.120Z,83.54
2022-09-14T02:56:34.789Z,83.89
2022-09-14T02:58:04.536Z,84.35
2022-09-14T02:59:05.980Z,84.43
2022-09-14T03:00:09.897Z,84.56
2022-09-14T03:01:13.474Z,84.80
2022-09-14T03:02:15.108Z,84.60
2022-09-14T03:03:19.016Z,84.32
2022-09-14T03:04:20.467Z,84.45
2022-09-14T03:05:22.106Z,84.56
2022-09-14T03:06:23.615Z,84.44
2022-09-14T03:07:25.092Z,84.99
2022-09-14T03:08:27.285Z,84.83
2022-09-14T03:09:28.733Z,84.63
2022-09-14T03:10:30.977Z,84.41
2022-09-14T03:11:32.417Z,84.31
2022-09-14T03:12:33.834Z,84.35
2022-09-14T03:13:36.021Z,84.46
2022-09-14T03:14:37.428Z,84.62
2022-09-14T03:15:40.437Z,85.19
2022-09-14T03:16:41.861Z,85.61
2022-09-14T03:17:46.624Z,85.38
2022-09-14T03:18:48.169Z,85.27
2022-09-14T03:19:49.619Z,85.59
2022-09-14T03:20:51.066Z,85.66
2022-09-14T03:21:52.512Z,85.55
2022-09-14T03:22:54.241Z,85.42
2022-09-14T03:23:55.660Z,85.13
2022-09-14T03:24:57.068Z,85.30
2022-09-14T03:25:58.483Z,85.72
2022-09-14T03:26:59.887Z,85.70
2022-09-14T03:28:01.471Z,85.22
2022-09-14T03:29:03.647Z,85.40
2022-09-14T03:30:05.969Z,84.88
2022-09-14T03:31:11.519Z,85.14
2022-09-14T03:32:13.000Z,85.25
2022-09-14T03:33:14.497Z,85.12
2022-09-14T03:34:16.172Z,84.93
2022-09-14T03:35:17.896Z,84.90
2022-09-14T03:36:20.127Z,85.24
2022-09-14T03:37:21.588Z,85.48
2022-09-14T03:38:23.108Z,85.33
2022-09-14T03:39:24.540Z,85.14
2022-09-14T03:40:26.924Z,85.16
2022-09-14T03:41:28.932Z,84.70
2022-09-14T03:42:30.665Z,84.63
2022-09-14T03:43:32.093Z,84.33
2022-09-14T03:44:33.514Z,84.82
2022-09-14T03:45:36.849Z,85.53
2022-09-14T03:46:39.735Z,86.15
2022-09-14T03:47:41.959Z,86.63
2022-09-14T03:48:44.283Z,87.21
2022-09-14T03:49:45.744Z,87.54
2022-09-14T03:50:47.173Z,87.45
2022-09-14T03:51:48.590Z,87.77
2022-09-14T03:52:49.995Z,87.40
2022-09-14T03:53:51.470Z,87.07
2022-09-14T03:54:52.932Z,87.20
2022-09-14T03:55:54.381Z,86.83
2022-09-14T03:56:55.833Z,87.19
2022-09-14T03:57:57.298Z,87.03
2022-09-14T03:58:58.715Z,87.22
2022-09-14T04:00:00.184Z,87.17
2022-09-14T04:01:05.420Z,87.86
2022-09-14T04:02:08.237Z,87.64
2022-09-14T04:03:09.803Z,87.37
2022-09-14T04:04:11.728Z,87.52
2022-09-14T04:05:13.194Z,87.92
2022-09-14T04:06:15.451Z,88.07
2022-09-14T04:07:17.366Z,88.01
2022-09-14T04:08:18.805Z,88.29
2022-09-14T04:09:20.372Z,88.31
2022-09-14T04:10:21.799Z,88.35
2022-09-14T04:11:24.835Z,88.22
2022-09-14T04:12:26.286Z,88.20
2022-09-14T04:13:27.740Z,88.06
2022-09-14T04:14:29.181Z,88.02
2022-09-14T04:15:30.619Z,88.54
2022-09-14T04:16:32.303Z,88.79
2022-09-14T04:17:35.532Z,88.36
2022-09-14T04:18:36.974Z,88.43
2022-09-14T04:19:38.398Z,88.24
2022-09-14T04:20:39.809Z,88.20
2022-09-14T04:21:41.343Z,88.31
2022-09-14T04:22:42.791Z,88.08
2022-09-14T04:24:13.483Z,88.39
2022-09-14T04:25:06.985Z,87.79
2022-09-14T04:26:10.255Z,87.50
2022-09-14T04:27:11.717Z,87.20
2022-09-14T04:28:20.869Z,87.64
2022-09-14T04:29:22.602Z,88.10
2022-09-14T04:30:24.044Z,88.33
2022-09-14T04:31:26.112Z,87.50
2022-09-14T04:32:32.058Z,87.57
2022-09-14T04:33:38.736Z,87.48
2022-09-14T04:34:40.202Z,87.48
2022-09-14T04:35:41.620Z,87.63
2022-09-14T04:36:43.126Z,87.77
2022-09-14T04:37:44.569Z,87.87
2022-09-14T04:38:46.731Z,88.55
2022-09-14T04:39:48.244Z,88.64
2022-09-14T04:40:49.833Z,88.95
2022-09-14T04:41:51.288Z,89.53
2022-09-14T04:42:52.761Z,89.13
2022-09-14T04:43:55.832Z,89.42
2022-09-14T04:44:57.285Z,89.25
2022-09-14T04:46:02.353Z,89.08
2022-09-14T04:47:04.157Z,89.30
2022-09-14T04:48:05.784Z,89.39
2022-09-14T04:49:09.320Z,89.51
2022-09-14T04:50:10.905Z,89.14
2022-09-14T04:51:14.124Z,89.03
2022-09-14T04:52:15.596Z,89.65
2022-09-14T04:53:17.083Z,89.19
2022-09-14T04:54:18.569Z,89.38
2022-09-14T04:55:19.983Z,89.66
2022-09-14T04:56:22.996Z,89.64
2022-09-14T04:57:24.441Z,89.45
2022-09-14T04:58:26.030Z,89.59
2022-09-14T04:59:27.537Z,89.42
2022-09-14T05:00:29.026Z,89.77
2022-09-14T05:01:32.375Z,89.30
2022-09-14T05:02:33.853Z,89.31
2022-09-14T05:03:35.802Z,89.78
2022-09-14T05:04:38.591Z,89.96
2022-09-14T05:05:44.216Z,90.17
2022-09-14T05:06:46.264Z,90.51
2022-09-14T05:07:47.673Z,90.90
2022-09-14T05:08:50.424Z,90.88
2022-09-14T05:09:51.892Z,91.18
2022-09-14T05:10:55.017Z,90.87
2022-09-14T05:11:56.467Z,90.91
2022-09-14T05:12:57.889Z,91.39
2022-09-14T05:14:00.785Z,91.50
2022-09-14T05:15:02.229Z,91.62
2022-09-14T05:16:07.803Z,91.67
2022-09-14T05:17:09.269Z,91.75
2022-09-14T05:18:10.734Z,92.14
2022-09-14T05:19:14.665Z,91.68
2022-09-14T05:20:17.472Z,91.83
2022-09-14T05:21:20.543Z,92.57
2022-09-14T05:22:21.991Z,93.05
2022-09-14T05:23:23.436Z,93.65
2022-09-14T05:24:25.259Z,93.91
2022-09-14T05:25:26.687Z,94.24
2022-09-14T05:26:30.112Z,95.28
2022-09-14T05:27:31.547Z,95.50
2022-09-14T05:28:34.111Z,95.97
2022-09-14T05:29:35.596Z,96.41
2022-09-14T05:30:39.457Z,97.54
2022-09-14T05:31:41.005Z,97.78
2022-09-14T05:32:42.538Z,97.98
2022-09-14T05:33:44.065Z,98.20
2022-09-14T05:34:45.522Z,98.23
2022-09-14T05:35:49.428Z,98.44
2022-09-14T05:36:50.913Z,98.82
2022-09-14T05:37:52.325Z,98.96
2022-09-14T05:38:53.787Z,98.71
2022-09-14T05:39:55.272Z,98.78
2022-09-14T05:40:57.062Z,98.62
2022-09-14T05:41:58.499Z,98.81
2022-09-14T05:42:59.946Z,99.24
2022-09-14T05:44:01.638Z,100.00
2022-09-14T05:45:03.551Z,99.65
2022-09-14T05:46:06.865Z,99.33
2022-09-14T05:47:08.378Z,99.47
2022-09-14T05:48:09.812Z,99.50
2022-09-14T05:49:11.294Z,99.48
2022-09-14T05:50:12.744Z,99.83
2022-09-14T05:51:17.953Z,99.74
2022-09-14T05:52:19.401Z,99.63
2022-09-14T05:53:20.812Z,100.00
2022-09-14T05:54:22.276Z,99.84
2022-09-14T05:55:23.756Z,99.36
2022-09-14T05:56:27.309Z,98.74
2022-09-14T05:57:28.741Z,98.49
2022-09-14T05:58:30.439Z,98.70
2022-09-14T05:59:31.921Z,98.42
2022-09-14T06:00:33.398Z,98.20
2022-09-14T06:01:34.890Z,98.29
2022-09-14T06:02:36.373Z,98.35
2022-09-14T06:03:38.096Z,97.41
2022-09-14T06:04:39.519Z,97.77
2022-09-14T06:05:41.060Z,97.43
2022-09-14T06:06:52.258Z,97.00
2022-09-14T06:08:05.351Z,96.54
2022-09-14T06:09:06.761Z,96.46
2022-09-14T06:10:08.698Z,96.19
2022-09-14T06:11:12.292Z,96.30
2022-09-14T06:12:13.803Z,96.09
2022-09-14T06:13:15.315Z,96.16
2022-09-14T06:14:16.768Z,95.82
2022-09-14T06:15:18.234Z,95.59
2022-09-14T06:16:21.419Z,95.53
2022-09-14T06:17:23.033Z,96.35
2022-09-14T06:18:24.460Z,96.87
2022-09-14T06:19:25.935Z,96.47
2022-09-14T06:20:27.414Z,96.37
2022-09-14T06:21:30.565Z,96.77
2022-09-14T06:22:33.486Z,96.08
2022-09-14T06:23:35.268Z,96.00
2022-09-14T06:24:36.736Z,95.26
2022-09-14T06:25:38.199Z,95.89
2022-09-14T06:26:40.373Z,96.38
2022-09-14T06:27:41.804Z,96.64
2022-09-14T06:28:43.533Z,96.49
2022-09-14T06:29:44.991Z,96.93
2022-09-14T06:30:46.457Z,96.29
2022-09-14T06:31:47.856Z,96.88
2022-09-14T06:32:49.296Z,97.31
2022-09-14T06:33:51.787Z,97.57
2022-09-14T06:34:53.239Z,98.27
2022-09-14T06:35:55.915Z,97.77
2022-09-14T06:36:57.379Z,97.23
2022-09-14T06:38:00.147Z,97.78
2022-09-14T06:39:01.588Z,97.20
2022-09-14T06:40:04.139Z,97.21
2022-09-14T06:41:07.795Z,96.43
2022-09-14T06:42:09.236Z,96.17
2022-09-14T06:43:10.661Z,96.68
2022-09-14T06:44:12.158Z,95.42
2022-09-14T06:45:13.647Z,95.79
2022-09-14T06:46:16.824Z,96.74
2022-09-14T06:47:18.276Z,95.60
2022-09-14T06:48:19.701Z,95.23
2022-09-14T06:49:21.134Z,95.40
2022-09-14T06:50:22.842Z,95.20
2022-09-14T06:51:27.498Z,94.47
2022-09-14T06:52:33.585Z,94.74
2022-09-14T06:53:36.609Z,94.59
2022-09-14T06:54:38.079Z,94.30
2022-09-14T06:55:39.520Z,94.99
2022-09-14T06:56:42.416Z,94.62
2022-09-14T06:57:43.881Z,94.27
2022-09-14T06:58:45.932Z,94.68
2022-09-14T06:59:47.364Z,94.32
2022-09-14T07:00:48.814Z,94.54
2022-09-14T07:01:50.333Z,94.55
2022-09-14T07:02:55.507Z,94.29
2022-09-14T07:03:57.565Z,94.21
2022-09-14T07:04:59.032Z,94.70
2022-09-14T07:06:04.877Z,93.88
2022-09-14T07:07:06.300Z,94.25
2022-09-14T07:08:11.939Z,94.71
2022-09-14T07:09:16.234Z,93.86
2022-09-14T07:10:17.701Z,93.87
2022-09-14T07:11:21.944Z,93.90
2022-09-14T07:12:23.388Z,94.04
2022-09-14T07:13:25.069Z,93.21
2022-09-14T07:14:30.349Z,93.17
2022-09-14T07:15:33.697Z,92.53
2022-09-14T07:16:36.351Z,92.27
2022-09-14T07:17:37.781Z,91.96
2022-09-14T07:18:39.945Z,91.36
2022-09-14T07:19:41.421Z,91.36
2022-09-14T07:20:42.849Z,91.59
2022-09-14T07:21:44.316Z,90.86
2022-09-14T07:22:45.748Z,91.27
2022-09-14T07:23:48.007Z,90.91
2022-09-14T07:24:50.758Z,90.63
2022-09-14T07:26:00.242Z,90.44
2022-09-14T07:27:02.419Z,90.10
2022-09-14T07:28:03.874Z,90.37
2022-09-14T07:29:07.870Z,90.58
2022-09-14T07:30:10.128Z,90.03
2022-09-14T07:31:18.405Z,89.97
2022-09-14T07:32:20.056Z,89.69
2022-09-14T07:33:21.533Z,89.83
2022-09-14T07:34:23.059Z,89.71
2022-09-14T07:35:24.460Z,89.99
2022-09-14T07:36:29.538Z,89.88
2022-09-14T07:37:34.144Z,89.50
2022-09-14T07:38:51.543Z,89.34
2022-09-14T07:39:55.341Z,89.54
2022-09-14T07:40:57.619Z,89.44
2022-09-14T07:41:59.087Z,89.25
2022-09-14T07:43:00.501Z,89.12
2022-09-14T07:44:03.754Z,88.41
2022-09-14T07:45:06.381Z,88.43
2022-09-14T07:46:08.129Z,88.45
2022-09-14T07:47:09.656Z,88.04
2022-09-14T07:48:11.191Z,88.04
2022-09-14T07:49:13.846Z,88.05
2022-09-14T07:50:15.455Z,88.06
2022-09-14T07:51:16.880Z,88.46
2022-09-14T07:52:18.340Z,88.28
2022-09-14T07:53:19.843Z,88.07
2022-09-14T07:54:21.292Z,88.75
2022-09-14T07:55:24.106Z,88.35
2022-09-14T07:56:25.675Z,88.86
2022-09-14T07:57:52.332Z,88.80
2022-09-14T07:58:55.481Z,88.42
2022-09-14T07:59:59.907Z,88.49
2022-09-14T08:01:04.188Z,88.09
2022-09-14T08:02:07.111Z,87.95
2022-09-14T08:03:08.677Z,87.46
2022-09-14T08:04:10.101Z,87.42
2022-09-14T08:05:11.624Z,87.76
2022-09-14T08:06:14.912Z,87.12
2022-09-14T08:07:16.406Z,87.09
2022-09-14T08:08:17.843Z,86.25
2022-09-14T08:09:19.268Z,86.47
2022-09-14T08:10:20.825Z,85.74
2022-09-14T08:11:25.613Z,85.59
2022-09-14T08:12:27.087Z,85.28
2022-09-14T08:13:28.525Z,84.55
2022-09-14T08:14:29.952Z,84.56
2022-09-14T08:15:31.374Z,83.87
2022-09-14T08:16:34.087Z,83.88
2022-09-14T08:17:35.635Z,84.40
2022-09-14T08:18:37.890Z,84.78
2022-09-14T08:19:39.379Z,84.90
2022-09-14T08:20:40.824Z,83.67
2022-09-14T08:21:46.591Z,83.13
2022-09-14T08:22:48.603Z,81.91
2022-09-14T08:23:50.143Z,82.85
2022-09-14T08:24:51.556Z,82.51
2022-09-14T08:25:52.995Z,81.70
2022-09-14T08:26:55.878Z,80.73
2022-09-14T08:27:57.352Z,81.04
2022-09-14T08:28:58.871Z,80.80
2022-09-14T08:30:00.364Z,80.35
2022-09-14T08:31:03.585Z,79.28
2022-09-14T08:32:05.525Z,79.82
2022-09-14T08:33:07.295Z,79.13
2022-09-14T08:34:08.726Z,79.42
2022-09-14T08:35:10.142Z,78.56
2022-09-14T08:36:14.157Z,78.46
2022-09-14T08:37:15.621Z,78.69
2022-09-14T08:38:17.050Z,78.48
2022-09-14T08:39:18.820Z,77.72
2022-09-14T08:40:20.388Z,78.39
2022-09-14T08:42:30.275Z,77.39
2022-09-14T08:43:32.735Z,78.17
2022-09-14T08:44:40.466Z,77.41
2022-09-14T08:45:43.661Z,76.78
2022-09-14T08:46:48.002Z,75.91
2022-09-14T08:47:51.601Z,76.93
2022-09-14T08:48:53.747Z,76.74
2022-09-14T08:50:01.380Z,76.08
2022-09-14T08:51:04.857Z,76.74
2022-09-14T08:52:13.294Z,76.98
2022-09-14T08:53:14.737Z,76.65
2022-09-14T08:54:16.234Z,76.97
2022-09-14T08:55:29.789Z,76.38
2022-09-14T08:56:33.883Z,76.08
2022-09-14T08:57:43.549Z,76.11
2022-09-14T08:58:57.945Z,76.12
2022-09-14T09:00:06.614Z,75.77
2022-09-14T09:01:22.456Z,73.96
2022-09-14T09:02:36.025Z,75.24
2022-09-14T09:03:56.637Z,74.66
2022-09-14T09:05:03.635Z,74.37
2022-09-14T09:06:15.813Z,73.71
2022-09-14T09:07:22.455Z,73.52
2022-09-14T09:08:34.447Z,74.33
2022-09-14T09:09:42.714Z,73.72
2022-09-14T09:10:46.309Z,73.86
2022-09-14T09:11:51.492Z,74.14
2022-09-14T09:12:57.231Z,73.23
2022-09-14T09:13:59.483Z,74.94
2022-09-14T09:15:04.668Z,74.63
2022-09-14T09:16:09.060Z,73.77
2022-09-14T09:17:15.375Z,74.03
2022-09-14T09:18:22.345Z,74.00
2022-09-14T09:19:28.929Z,73.78
2022-09-14T09:20:33.391Z,74.87
2022-09-14T09:21:40.695Z,73.88
2022-09-14T09:22:44.886Z,74.73
2022-09-14T09:23:46.622Z,74.51
2022-09-14T09:24:52.444Z,74.37
2022-09-14T09:25:59.471Z,74.24
2022-09-14T09:27:01.107Z,74.07
2022-09-14T09:28:11.737Z,73.93
2022-09-14T09:29:13.218Z,74.72
2022-09-14T09:30:15.687Z,74.01
2022-09-14T09:31:19.309Z,73.80
2022-09-14T09:32:23.246Z,74.61
2022-09-14T09:33:27.162Z,73.58
2022-09-14T09:34:29.971Z,73.58
2022-09-14T09:35:32.297Z,74.18
2022-09-14T09:36:36.898Z,74.05
2022-09-14T09:37:39.706Z,73.42
2022-09-14T09:38:41.520Z,74.53
2022-09-14T09:39:44.295Z,74.16
2022-09-14T09:40:49.018Z,73.10
2022-09-14T09:41:55.853Z,73.49
2022-09-14T09:43:10.571Z,73.96
2022-09-14T09:44:12.215Z,73.74
2022-09-14T09:45:13.844Z,74.36
2022-09-14T09:46:15.446Z,74.23
2022-09-14T09:47:24.527Z,74.32
2022-09-14T09:48:31.201Z,74.85
2022-09-14T09:49:36.741Z,74.99
2022-09-14T09:50:47.189Z,75.95
2022-09-14T09:51:49.183Z,76.16
2022-09-14T09:52:53.189Z,76.08
2022-09-14T09:53:57.378Z,77.23
2022-09-14T09:55:00.032Z,77.42
2022-09-14T09:56:02.272Z,77.89
2022-09-14T09:57:06.687Z,78.68
2022-09-14T09:58:27.203Z,79.16
2022-09-14T09:59:32.023Z,79.11
2022-09-14T10:00:33.563Z,77.66
2022-09-14T10:01:35.870Z,78.87
2022-09-14T10:02:37.516Z,79.13
2022-09-14T10:03:40.531Z,78.61
2022-09-14T10:04:57.555Z,76.80
2022-09-14T10:07:21.337Z,75.57
2022-09-14T10:08:22.813Z,76.68
2022-09-14T10:09:26.630Z,76.78
2022-09-14T10:10:41.681Z,77.25
2022-09-14T10:11:43.861Z,77.01
2022-09-14T10:12:49.666Z,76.15
2022-09-14T10:13:52.516Z,76.08
2022-09-14T10:15:15.796Z,75.83
2022-09-14T10:16:19.767Z,74.89
2022-09-14T10:17:23.082Z,74.65
2022-09-14T10:18:27.143Z,75.01
2022-09-14T10:19:28.848Z,74.64
2022-09-14T10:20:30.377Z,74.64
2022-09-14T10:21:31.822Z,74.77
2022-09-14T10:22:34.718Z,74.63
2022-09-14T10:23:37.434Z,74.85
2022-09-14T10:24:39.023Z,74.07
2022-09-14T10:25:40.581Z,73.32
2022-09-14T10:26:42.071Z,73.51
2022-09-14T10:27:47.180Z,73.18
2022-09-14T10:28:50.390Z,72.59
2022-09-14T10:29:55.727Z,72.15
2022-09-14T10:31:02.243Z,72.60
2022-09-14T10:32:14.937Z,72.93
2022-09-14T10:33:17.033Z,74.42
2022-09-14T10:34:19.852Z,73.43
2022-09-14T10:35:23.962Z,73.10
2022-09-14T10:36:29.145Z,74.26
2022-09-14T10:37:36.092Z,72.60
2022-09-14T10:38:42.465Z,71.89
2022-09-14T10:39:51.498Z,72.81
2022-09-14T10:41:05.116Z,72.78
2022-09-14T10:42:17.500Z,71.95
2022-09-14T10:43:26.849Z,71.69
2022-09-14T10:44:45.951Z,70.71
2022-09-14T10:45:55.311Z,72.27
2022-09-14T10:47:15.696Z,71.81
2022-09-14T10:48:40.832Z,70.99
2022-09-14T10:49:53.924Z,71.97
2022-09-14T10:51:02.717Z,71.16
2022-09-14T10:52:14.713Z,71.44
2022-09-14T10:53:28.027Z,71.08
2022-09-14T10:54:50.516Z,70.76
2022-09-14T10:55:59.576Z,71.82
2022-09-14T10:57:13.402Z,71.25
2022-09-14T10:58:29.070Z,71.91
2022-09-14T10:59:36.877Z,72.19
2022-09-14T11:00:45.330Z,71.00
2022-09-14T11:02:09.382Z,71.11
2022-09-14T11:03:23.968Z,71.24
2022-09-14T11:04:43.174Z,71.02
2022-09-14T11:05:52.071Z,70.91
2022-09-14T11:07:00.949Z,70.98
2022-09-14T11:08:12.667Z,71.41
2022-09-14T11:09:21.392Z,72.07
2022-09-14T11:10:31.547Z,70.86
2022-09-14T11:11:44.111Z,71.59
2022-09-14T11:12:55.462Z,71.46
2022-09-14T11:14:12.031Z,71.84
2022-09-14T11:15:24.980Z,71.88
2022-09-14T11:16:52.565Z,71.71
2022-09-14T11:18:12.729Z,71.73
2022-09-14T11:19:25.190Z,72.25
2022-09-14T11:20:37.455Z,71.83
2022-09-14T11:21:46.343Z,71.52
2022-09-14T11:22:58.394Z,71.36
2022-09-14T11:24:06.314Z,71.55
2022-09-14T11:25:13.827Z,71.95
2022-09-14T11:26:22.261Z,71.71
2022-09-14T11:27:28.453Z,71.59
2022-09-14T11:28:34.844Z,72.34
2022-09-14T11:29:44.155Z,71.18
2022-09-14T11:30:50.562Z,71.42
2022-09-14T11:32:16.894Z,71.86
2022-09-14T11:33:22.808Z,72.10
2022-09-14T11:34:27.840Z,72.08
2022-09-14T11:35:34.075Z,72.27
2022-09-14T11:36:41.173Z,72.00
2022-09-14T11:37:48.261Z,72.04
2022-09-14T11:38:55.430Z,71.95
2022-09-14T11:40:04.986Z,71.10
2022-09-14T11:41:17.715Z,70.86
2022-09-14T11:42:24.003Z,70.81
2022-09-14T11:43:35.515Z,70.85
2022-09-14T11:44:38.428Z,71.15
2022-09-14T11:45:44.868Z,71.18
2022-09-14T11:46:50.450Z,70.80
2022-09-14T11:47:59.232Z,70.39
2022-09-14T11:49:09.610Z,70.67
2022-09-14T11:50:18.381Z,70.82
2022-09-14T11:51:24.080Z,70.45
2022-09-14T11:52:27.540Z,70.26
2022-09-14T11:53:30.766Z,70.49
2022-09-14T11:54:32.299Z,69.84
2022-09-14T11:55:34.814Z,69.59
2022-09-14T11:56:36.372Z,69.64
2022-09-14T11:57:38.136Z,69.66
2022-09-14T11:58:39.722Z,69.54
2022-09-14T11:59:52.716Z,69.78
2022-09-14T12:01:25.469Z,69.84
2022-09-14T12:02:58.281Z,69.43
2022-09-14T12:04:10.588Z,70.18
2022-09-14T12:05:28.937Z,69.83
2022-09-14T12:06:55.555Z,69.48
2022-09-14T12:08:32.148Z,69.89
2022-09-14T12:09:53.964Z,69.64
2022-09-14T12:11:04.825Z,69.84
2022-09-14T12:12:34.252Z,69.64
2022-09-14T12:13:36.884Z,69.43
2022-09-14T12:14:40.411Z,69.82
2022-09-14T12:15:42.463Z,69.84
2022-09-14T12:17:22.787Z,70.00
2022-09-14T12:18:28.536Z,69.59
2022-09-14T12:19:31.851Z,69.96
2022-09-14T12:20:42.767Z,70.45
2022-09-14T12:21:44.420Z,70.05
2022-09-14T12:22:50.007Z,70.33
2022-09-14T12:23:53.364Z,69.89
2022-09-14T12:25:00.372Z,71.03
2022-09-14T12:26:14.813Z,72.50
2022-09-14T12:27:22.172Z,71.07
2022-09-14T12:28:29.739Z,71.49
2022-09-14T12:29:33.499Z,72.28
2022-09-14T12:31:12.225Z,71.95
2022-09-14T12:32:37.803Z,72.30
2022-09-14T12:33:44.336Z,70.33
2022-09-14T12:35:08.057Z,69.70
2022-09-14T12:36:11.200Z,67.00
2022-09-14T12:37:31.552Z,66.99
2022-09-14T12:38:41.573Z,67.29
2022-09-14T12:40:34.580Z,67.23
2022-09-14T12:42:25.476Z,66.47
2022-09-14T12:43:53.107Z,64.20
2022-09-14T12:44:54.645Z,64.20
2022-09-14T12:46:01.145Z,65.42
2022-09-14T12:47:40.214Z,63.57
2022-09-14T12:49:02.964Z,66.63
2022-09-14T12:50:12.300Z,64.12
2022-09-14T12:51:22.404Z,64.05
2022-09-14T12:52:35.599Z,63.31
2022-09-14T12:53:37.150Z,63.70
2022-09-14T12:54:53.394Z,63.91
2022-09-14T12:56:01.529Z,64.79
2022-09-14T12:57:16.384Z,64.99
2022-09-14T12:58:30.917Z,64.52
2022-09-14T12:59:43.937Z,64.75
2022-09-14T13:00:55.513Z,64.28
2022-09-14T13:02:05.157Z,66.64
2022-09-14T13:03:26.139Z,65.79
2022-09-14T13:04:29.999Z,65.86
2022-09-14T13:05:34.244Z,65.83
2022-09-14T13:06:42.705Z,66.20
2022-09-14T13:07:45.272Z,65.98
2022-09-14T13:08:49.096Z,67.36
2022-09-14T13:09:54.612Z,66.75
2022-09-14T13:10:56.145Z,68.72
2022-09-14T13:12:00.457Z,69.01
2022-09-14T13:13:05.547Z,67.13
2022-09-14T13:14:16.152Z,66.36
2022-09-14T13:15:21.566Z,65.97
2022-09-14T13:16:36.181Z,67.06
2022-09-14T13:17:54.797Z,67.58
2022-09-14T13:19:00.726Z,68.69
2022-09-14T13:20:05.119Z,67.20
2022-09-14T13:21:20.244Z,67.57
2022-09-14T13:22:23.567Z,66.81
2022-09-14T13:23:29.108Z,67.36
2022-09-14T13:24:35.607Z,67.20
2022-09-14T13:25:38.469Z,66.52
2022-09-14T13:26:40.177Z,66.79
2022-09-14T13:27:49.726Z,67.46
2022-09-14T13:28:54.031Z,67.47
2022-09-14T13:30:01.925Z,68.38
2022-09-14T13:31:03.592Z,68.46
2022-09-14T13:32:06.601Z,69.19
2022-09-14T13:33:16.364Z,69.58
2022-09-14T13:34:21.761Z,69.29
2022-09-14T13:35:29.192Z,70.12
2022-09-14T13:36:36.469Z,71.22
2022-09-14T13:37:38.714Z,72.47
2022-09-14T13:38:42.631Z,72.28
2022-09-14T13:39:49.859Z,71.82
2022-09-14T13:40:54.701Z,72.22
2022-09-14T13:41:57.363Z,72.85
2022-09-14T13:42:59.531Z,72.36
2022-09-14T13:44:01.132Z,72.52
2022-09-14T13:45:04.363Z,71.04
2022-09-14T13:46:07.319Z,71.85
2022-09-14T13:47:12.669Z,70.38
2022-09-14T13:48:16.367Z,70.99
2022-09-14T13:49:18.085Z,72.06
2022-09-14T13:50:21.451Z,70.80
2022-09-14T13:51:25.096Z,72.80
2022-09-14T13:52:50.055Z,72.09
2022-09-14T13:53:54.775Z,71.61
2022-09-14T13:55:12.081Z,72.43
2022-09-14T13:56:22.478Z,71.75
2022-09-14T13:57:24.976Z,70.37
2022-09-14T13:58:26.449Z,70.81
2022-09-14T13:59:27.874Z,70.33
2022-09-14T14:00:30.312Z,70.18
2022-09-14T14:01:32.756Z,70.96
2022-09-14T14:02:36.576Z,70.96
2022-09-14T14:03:40.440Z,71.70
2022-09-14T14:04:48.244Z,70.93